sensor_id;sensor_type;location;lat;lon;timestamp;temperature;humidity
15997;DHT22;8103;51.340;12.326;2024-01-10T00:00:14;-7.90;99.90
15997;DHT22;8103;51.340;12.326;2024-01-10T00:02:41;-7.80;99.90
15997;DHT22;8103;51.340;12.326;2024-01-10T00:05:08;-7.80;99.90
15997;DHT22;8103;51.340;12.326;2024-01-10T00:07:35;-7.80;99.90
15997;DHT22;8103;51.340;12.326;2024-01-10T00:10:04;-7.80;99.90
15997;DHT22;8103;51.340;12.326;2024-01-10T00:12:30;-7.80;99.90
15997;DHT22;8103;51.340;12.326;2024-01-10T00:15:04;-7.80;99.90
15997;DHT22;8103;51.340;12.326;2024-01-10T00:17:32;-7.80;99.90
15997;DHT22;8103;51.340;12.326;2024-01-10T00:19:59;-7.80;99.90
15997;DHT22;8103;51.340;12.326;2024-01-10T00:22:25;-7.80;99.90
15997;DHT22;8103;51.340;12.326;2024-01-10T00:24:52;-7.90;99.90
15997;DHT22;8103;51.340;12.326;2024-01-10T00:27:19;-7.90;99.90
15997;DHT22;8103;51.340;12.326;2024-01-10T00:29:45;-7.90;99.90
15997;DHT22;8103;51.340;12.326;2024-01-10T00:32:12;-8.00;99.90
15997;DHT22;8103;51.340;12.326;2024-01-10T00:34:38;-8.00;99.90
15997;DHT22;8103;51.340;12.326;2024-01-10T00:37:05;-8.00;99.90
15997;DHT22;8103;51.340;12.326;2024-01-10T00:39:32;-8.00;99.90
15997;DHT22;8103;51.340;12.326;2024-01-10T00:41:59;-8.10;99.90
15997;DHT22;8103;51.340;12.326;2024-01-10T00:44:25;-8.00;99.90
15997;DHT22;8103;51.340;12.326;2024-01-10T00:46:52;-8.10;99.90
15997;DHT22;8103;51.340;12.326;2024-01-10T00:49:19;-8.10;99.90
15997;DHT22;8103;51.340;12.326;2024-01-10T00:51:46;-8.10;99.90
15997;DHT22;8103;51.340;12.326;2024-01-10T00:54:13;-8.10;99.90
15997;DHT22;8103;51.340;12.326;2024-01-10T00:56:39;-8.10;99.90
15997;DHT22;8103;51.340;12.326;2024-01-10T00:59:06;-8.10;99.90
15997;DHT22;8103;51.340;12.326;2024-01-10T01:01:33;-8.10;99.90
15997;DHT22;8103;51.340;12.326;2024-01-10T01:03:59;-8.10;99.90
15997;DHT22;8103;51.340;12.326;2024-01-10T01:06:26;-8.20;99.90
15997;DHT22;8103;51.340;12.326;2024-01-10T01:08:53;-8.20;99.90
15997;DHT22;8103;51.340;12.326;2024-01-10T01:11:19;-8.20;99.90
15997;DHT22;8103;51.340;12.326;2024-01-10T01:13:46;-8.20;99.90
15997;DHT22;8103;51.340;12.326;2024-01-10T01:16:12;-8.20;99.90
15997;DHT22;8103;51.340;12.326;2024-01-10T01:18:39;-8.20;99.90
15997;DHT22;8103;51.340;12.326;2024-01-10T01:21:06;-8.20;99.90
15997;DHT22;8103;51.340;12.326;2024-01-10T01:23:32;-8.20;99.90
15997;DHT22;8103;51.340;12.326;2024-01-10T01:26:04;-8.20;99.90
15997;DHT22;8103;51.340;12.326;2024-01-10T01:28:31;-8.20;99.90
15997;DHT22;8103;51.340;12.326;2024-01-10T01:30:59;-8.30;99.90
15997;DHT22;8103;51.340;12.326;2024-01-10T01:33:25;-8.30;99.90
15997;DHT22;8103;51.340;12.326;2024-01-10T01:35:52;-8.30;99.90
15997;DHT22;8103;51.340;12.326;2024-01-10T01:38:20;-8.30;99.90
15997;DHT22;8103;51.340;12.326;2024-01-10T01:40:47;-8.30;99.90
15997;DHT22;8103;51.340;12.326;2024-01-10T01:43:22;-8.30;99.90
15997;DHT22;8103;51.340;12.326;2024-01-10T01:45:54;-8.30;99.90
15997;DHT22;8103;51.340;12.326;2024-01-10T01:48:23;-8.40;99.90
15997;DHT22;8103;51.340;12.326;2024-01-10T01:50:57;-8.40;99.90
15997;DHT22;8103;51.340;12.326;2024-01-10T01:53:25;-8.30;99.90
15997;DHT22;8103;51.340;12.326;2024-01-10T01:55:52;-8.40;99.90
15997;DHT22;8103;51.340;12.326;2024-01-10T01:58:20;-8.40;99.90
15997;DHT22;8103;51.340;12.326;2024-01-10T02:00:47;-8.40;99.90
15997;DHT22;8103;51.340;12.326;2024-01-10T02:03:14;-8.40;99.90
15997;DHT22;8103;51.340;12.326;2024-01-10T02:05:41;-8.40;99.90
15997;DHT22;8103;51.340;12.326;2024-01-10T02:08:08;-8.40;99.90
15997;DHT22;8103;51.340;12.326;2024-01-10T02:10:35;-8.50;99.90
15997;DHT22;8103;51.340;12.326;2024-01-10T02:13:02;-8.50;99.90
15997;DHT22;8103;51.340;12.326;2024-01-10T02:15:29;-8.50;99.90
15997;DHT22;8103;51.340;12.326;2024-01-10T02:17:56;-8.50;99.90
15997;DHT22;8103;51.340;12.326;2024-01-10T02:20:22;-8.50;99.90
15997;DHT22;8103;51.340;12.326;2024-01-10T02:22:49;-8.40;99.90
15997;DHT22;8103;51.340;12.326;2024-01-10T02:25:17;-8.50;99.90
15997;DHT22;8103;51.340;12.326;2024-01-10T02:27:44;-8.50;99.90
15997;DHT22;8103;51.340;12.326;2024-01-10T02:30:11;-8.50;99.90
15997;DHT22;8103;51.340;12.326;2024-01-10T02:32:38;-8.50;99.90
15997;DHT22;8103;51.340;12.326;2024-01-10T02:35:05;-8.50;99.90
15997;DHT22;8103;51.340;12.326;2024-01-10T02:37:32;-8.50;99.90
15997;DHT22;8103;51.340;12.326;2024-01-10T02:39:58;-8.60;99.90
15997;DHT22;8103;51.340;12.326;2024-01-10T02:42:27;-8.60;99.90
15997;DHT22;8103;51.340;12.326;2024-01-10T02:44:55;-8.60;99.90
15997;DHT22;8103;51.340;12.326;2024-01-10T02:47:22;-8.60;99.90
15997;DHT22;8103;51.340;12.326;2024-01-10T02:49:48;-8.60;99.90
15997;DHT22;8103;51.340;12.326;2024-01-10T02:52:15;-8.60;99.90
15997;DHT22;8103;51.340;12.326;2024-01-10T02:54:42;-8.60;99.90
15997;DHT22;8103;51.340;12.326;2024-01-10T02:57:08;-8.60;99.90
15997;DHT22;8103;51.340;12.326;2024-01-10T02:59:35;-8.60;99.90
15997;DHT22;8103;51.340;12.326;2024-01-10T03:02:02;-8.70;99.90
15997;DHT22;8103;51.340;12.326;2024-01-10T03:04:29;-8.70;99.90
15997;DHT22;8103;51.340;12.326;2024-01-10T03:06:55;-8.70;99.90
15997;DHT22;8103;51.340;12.326;2024-01-10T03:09:23;-8.70;99.90
15997;DHT22;8103;51.340;12.326;2024-01-10T03:11:50;-8.70;99.90
15997;DHT22;8103;51.340;12.326;2024-01-10T03:14:17;-8.70;99.90
15997;DHT22;8103;51.340;12.326;2024-01-10T03:16:43;-8.80;99.90
15997;DHT22;8103;51.340;12.326;2024-01-10T03:19:10;-8.80;99.90
15997;DHT22;8103;51.340;12.326;2024-01-10T03:21:37;-8.80;99.90
15997;DHT22;8103;51.340;12.326;2024-01-10T03:24:04;-8.80;99.90
15997;DHT22;8103;51.340;12.326;2024-01-10T03:26:31;-8.80;99.90
15997;DHT22;8103;51.340;12.326;2024-01-10T03:28:57;-8.80;99.90
15997;DHT22;8103;51.340;12.326;2024-01-10T03:31:26;-8.80;99.90
15997;DHT22;8103;51.340;12.326;2024-01-10T03:33:53;-8.80;99.90
15997;DHT22;8103;51.340;12.326;2024-01-10T03:36:19;-8.80;99.90
15997;DHT22;8103;51.340;12.326;2024-01-10T03:38:46;-8.80;99.90
15997;DHT22;8103;51.340;12.326;2024-01-10T03:41:17;-8.80;99.90
15997;DHT22;8103;51.340;12.326;2024-01-10T03:43:45;-8.80;99.90
15997;DHT22;8103;51.340;12.326;2024-01-10T03:46:12;-8.80;99.90
15997;DHT22;8103;51.340;12.326;2024-01-10T03:48:39;-8.80;99.90
15997;DHT22;8103;51.340;12.326;2024-01-10T03:51:15;-8.80;99.90
15997;DHT22;8103;51.340;12.326;2024-01-10T03:53:43;-8.80;99.90
15997;DHT22;8103;51.340;12.326;2024-01-10T03:56:10;-8.80;99.90
15997;DHT22;8103;51.340;12.326;2024-01-10T03:58:37;-8.80;99.90
15997;DHT22;8103;51.340;12.326;2024-01-10T04:01:05;-8.80;99.90
15997;DHT22;8103;51.340;12.326;2024-01-10T04:03:33;-8.80;99.90
15997;DHT22;8103;51.340;12.326;2024-01-10T04:06:01;-8.80;99.90
15997;DHT22;8103;51.340;12.326;2024-01-10T04:08:28;-8.90;99.90
15997;DHT22;8103;51.340;12.326;2024-01-10T04:10:55;-8.90;99.90
15997;DHT22;8103;51.340;12.326;2024-01-10T04:17:16;-8.90;99.90
15997;DHT22;8103;51.340;12.326;2024-01-10T04:19:43;-8.90;99.90
15997;DHT22;8103;51.340;12.326;2024-01-10T04:22:10;-8.90;99.90
15997;DHT22;8103;51.340;12.326;2024-01-10T04:24:36;-8.90;99.90
15997;DHT22;8103;51.340;12.326;2024-01-10T04:27:03;-8.90;99.90
15997;DHT22;8103;51.340;12.326;2024-01-10T04:29:32;-8.90;99.90
15997;DHT22;8103;51.340;12.326;2024-01-10T04:31:58;-9.00;99.90
15997;DHT22;8103;51.340;12.326;2024-01-10T04:34:25;-9.00;99.90
15997;DHT22;8103;51.340;12.326;2024-01-10T04:36:52;-9.00;99.90
15997;DHT22;8103;51.340;12.326;2024-01-10T04:39:19;-8.90;99.90
15997;DHT22;8103;51.340;12.326;2024-01-10T04:41:45;-9.00;99.90
15997;DHT22;8103;51.340;12.326;2024-01-10T04:44:12;-9.00;99.90
15997;DHT22;8103;51.340;12.326;2024-01-10T04:46:39;-8.90;99.90
15997;DHT22;8103;51.340;12.326;2024-01-10T04:49:07;-9.00;99.90
15997;DHT22;8103;51.340;12.326;2024-01-10T04:51:34;-8.90;99.90
15997;DHT22;8103;51.340;12.326;2024-01-10T04:54:01;-9.00;99.90
15997;DHT22;8103;51.340;12.326;2024-01-10T04:56:28;-9.00;99.90
15997;DHT22;8103;51.340;12.326;2024-01-10T04:58:54;-8.90;99.90
15997;DHT22;8103;51.340;12.326;2024-01-10T05:01:21;-9.00;99.90
15997;DHT22;8103;51.340;12.326;2024-01-10T05:03:48;-9.00;99.90
15997;DHT22;8103;51.340;12.326;2024-01-10T05:06:15;-9.00;99.90
15997;DHT22;8103;51.340;12.326;2024-01-10T05:08:41;-9.00;99.90
15997;DHT22;8103;51.340;12.326;2024-01-10T05:11:08;-9.00;99.90
15997;DHT22;8103;51.340;12.326;2024-01-10T05:13:35;-9.00;99.90
15997;DHT22;8103;51.340;12.326;2024-01-10T05:16:02;-9.00;99.90
15997;DHT22;8103;51.340;12.326;2024-01-10T05:18:29;-9.00;99.90
15997;DHT22;8103;51.340;12.326;2024-01-10T05:20:55;-9.00;99.90
15997;DHT22;8103;51.340;12.326;2024-01-10T05:23:22;-9.00;99.90
15997;DHT22;8103;51.340;12.326;2024-01-10T05:25:49;-9.10;99.90
15997;DHT22;8103;51.340;12.326;2024-01-10T05:28:16;-9.10;99.90
15997;DHT22;8103;51.340;12.326;2024-01-10T05:30:43;-9.10;99.90
15997;DHT22;8103;51.340;12.326;2024-01-10T05:33:10;-9.10;99.90
15997;DHT22;8103;51.340;12.326;2024-01-10T05:35:42;-9.10;99.90
15997;DHT22;8103;51.340;12.326;2024-01-10T05:38:09;-9.10;99.90
15997;DHT22;8103;51.340;12.326;2024-01-10T05:40:35;-9.10;99.90
15997;DHT22;8103;51.340;12.326;2024-01-10T05:43:02;-9.10;99.90
15997;DHT22;8103;51.340;12.326;2024-01-10T05:45:29;-9.10;99.90
15997;DHT22;8103;51.340;12.326;2024-01-10T05:47:56;-9.10;99.90
15997;DHT22;8103;51.340;12.326;2024-01-10T05:50:23;-9.10;99.90
15997;DHT22;8103;51.340;12.326;2024-01-10T05:52:50;-9.10;99.90
15997;DHT22;8103;51.340;12.326;2024-01-10T05:55:16;-9.10;99.90
15997;DHT22;8103;51.340;12.326;2024-01-10T05:57:43;-9.20;99.90
15997;DHT22;8103;51.340;12.326;2024-01-10T06:00:12;-9.20;99.90
15997;DHT22;8103;51.340;12.326;2024-01-10T06:02:39;-9.20;99.90
15997;DHT22;8103;51.340;12.326;2024-01-10T06:05:07;-9.20;99.90
15997;DHT22;8103;51.340;12.326;2024-01-10T06:07:36;-9.20;99.90
15997;DHT22;8103;51.340;12.326;2024-01-10T06:10:03;-9.30;99.90
15997;DHT22;8103;51.340;12.326;2024-01-10T06:12:30;-9.30;99.90
15997;DHT22;8103;51.340;12.326;2024-01-10T06:14:57;-9.30;99.90
15997;DHT22;8103;51.340;12.326;2024-01-10T06:17:24;-9.30;99.90
15997;DHT22;8103;51.340;12.326;2024-01-10T06:19:51;-9.30;99.90
15997;DHT22;8103;51.340;12.326;2024-01-10T06:22:18;-9.40;99.90
15997;DHT22;8103;51.340;12.326;2024-01-10T06:24:45;-9.30;99.90
15997;DHT22;8103;51.340;12.326;2024-01-10T06:27:11;-9.40;99.90
15997;DHT22;8103;51.340;12.326;2024-01-10T06:29:38;-9.40;99.90
15997;DHT22;8103;51.340;12.326;2024-01-10T06:32:05;-9.40;99.90
15997;DHT22;8103;51.340;12.326;2024-01-10T06:34:33;-9.30;99.90
15997;DHT22;8103;51.340;12.326;2024-01-10T06:37:00;-9.40;99.90
15997;DHT22;8103;51.340;12.326;2024-01-10T06:39:27;-9.30;99.90
15997;DHT22;8103;51.340;12.326;2024-01-10T06:41:54;-9.30;99.90
15997;DHT22;8103;51.340;12.326;2024-01-10T06:44:21;-9.30;99.90
15997;DHT22;8103;51.340;12.326;2024-01-10T06:46:48;-9.30;99.90
15997;DHT22;8103;51.340;12.326;2024-01-10T06:49:15;-9.30;99.90
15997;DHT22;8103;51.340;12.326;2024-01-10T06:51:41;-9.30;99.90
15997;DHT22;8103;51.340;12.326;2024-01-10T06:54:08;-9.30;99.90
15997;DHT22;8103;51.340;12.326;2024-01-10T06:56:35;-9.30;99.90
15997;DHT22;8103;51.340;12.326;2024-01-10T06:59:02;-9.30;99.90
15997;DHT22;8103;51.340;12.326;2024-01-10T07:01:29;-9.30;99.90
15997;DHT22;8103;51.340;12.326;2024-01-10T07:03:56;-9.30;99.90
15997;DHT22;8103;51.340;12.326;2024-01-10T07:06:23;-9.30;99.90
15997;DHT22;8103;51.340;12.326;2024-01-10T07:08:50;-9.30;99.90
15997;DHT22;8103;51.340;12.326;2024-01-10T07:11:17;-9.30;99.90
15997;DHT22;8103;51.340;12.326;2024-01-10T07:13:44;-9.30;99.90
15997;DHT22;8103;51.340;12.326;2024-01-10T07:16:11;-9.20;99.90
15997;DHT22;8103;51.340;12.326;2024-01-10T07:18:41;-9.20;99.90
15997;DHT22;8103;51.340;12.326;2024-01-10T07:21:09;-9.20;99.90
15997;DHT22;8103;51.340;12.326;2024-01-10T07:23:36;-9.20;99.90
15997;DHT22;8103;51.340;12.326;2024-01-10T07:26:04;-9.10;99.90
15997;DHT22;8103;51.340;12.326;2024-01-10T07:28:31;-9.10;99.90
15997;DHT22;8103;51.340;12.326;2024-01-10T07:30:59;-9.10;99.90
15997;DHT22;8103;51.340;12.326;2024-01-10T07:33:29;-9.10;99.90
15997;DHT22;8103;51.340;12.326;2024-01-10T07:36:00;-9.00;99.90
15997;DHT22;8103;51.340;12.326;2024-01-10T07:38:27;-9.00;99.90
15997;DHT22;8103;51.340;12.326;2024-01-10T07:40:54;-9.00;99.90
15997;DHT22;8103;51.340;12.326;2024-01-10T07:43:20;-9.00;99.90
15997;DHT22;8103;51.340;12.326;2024-01-10T07:45:47;-8.90;99.90
15997;DHT22;8103;51.340;12.326;2024-01-10T07:48:14;-8.90;99.90
15997;DHT22;8103;51.340;12.326;2024-01-10T07:50:40;-8.90;99.90
15997;DHT22;8103;51.340;12.326;2024-01-10T07:53:07;-8.80;99.90
15997;DHT22;8103;51.340;12.326;2024-01-10T07:55:34;-8.80;99.90
15997;DHT22;8103;51.340;12.326;2024-01-10T07:58:01;-8.80;99.90
15997;DHT22;8103;51.340;12.326;2024-01-10T08:00:28;-8.80;99.90
15997;DHT22;8103;51.340;12.326;2024-01-10T08:02:56;-8.70;99.90
15997;DHT22;8103;51.340;12.326;2024-01-10T08:05:24;-8.70;99.90
15997;DHT22;8103;51.340;12.326;2024-01-10T08:07:51;-8.60;99.90
15997;DHT22;8103;51.340;12.326;2024-01-10T08:10:18;-8.60;99.90
15997;DHT22;8103;51.340;12.326;2024-01-10T08:12:45;-8.50;99.90
15997;DHT22;8103;51.340;12.326;2024-01-10T08:15:12;-8.50;99.90
15997;DHT22;8103;51.340;12.326;2024-01-10T08:17:39;-8.40;99.90
15997;DHT22;8103;51.340;12.326;2024-01-10T08:20:07;-8.40;99.90
15997;DHT22;8103;51.340;12.326;2024-01-10T08:22:35;-8.30;99.90
15997;DHT22;8103;51.340;12.326;2024-01-10T08:25:01;-8.30;99.90
15997;DHT22;8103;51.340;12.326;2024-01-10T08:27:29;-8.20;99.90
15997;DHT22;8103;51.340;12.326;2024-01-10T08:29:56;-8.20;99.90
15997;DHT22;8103;51.340;12.326;2024-01-10T08:32:23;-8.20;99.90
15997;DHT22;8103;51.340;12.326;2024-01-10T08:34:49;-8.10;99.90
15997;DHT22;8103;51.340;12.326;2024-01-10T08:37:17;-8.00;99.90
15997;DHT22;8103;51.340;12.326;2024-01-10T08:39:44;-8.00;99.90
15997;DHT22;8103;51.340;12.326;2024-01-10T08:42:11;-7.90;99.90
15997;DHT22;8103;51.340;12.326;2024-01-10T08:44:38;-7.70;99.90
15997;DHT22;8103;51.340;12.326;2024-01-10T08:47:05;-7.60;99.90
15997;DHT22;8103;51.340;12.326;2024-01-10T08:49:32;-7.40;99.90
15997;DHT22;8103;51.340;12.326;2024-01-10T08:51:58;-6.80;99.90
15997;DHT22;8103;51.340;12.326;2024-01-10T08:54:25;-5.60;99.90
15997;DHT22;8103;51.340;12.326;2024-01-10T08:56:52;-4.20;99.90
15997;DHT22;8103;51.340;12.326;2024-01-10T08:59:19;-2.90;99.90
15997;DHT22;8103;51.340;12.326;2024-01-10T09:01:46;-1.90;99.90
15997;DHT22;8103;51.340;12.326;2024-01-10T09:04:12;-1.00;98.90
15997;DHT22;8103;51.340;12.326;2024-01-10T09:06:39;-0.20;96.70
15997;DHT22;8103;51.340;12.326;2024-01-10T09:09:06;0.60;96.70
15997;DHT22;8103;51.340;12.326;2024-01-10T09:11:33;1.30;99.90
15997;DHT22;8103;51.340;12.326;2024-01-10T09:14:03;1.90;97.00
15997;DHT22;8103;51.340;12.326;2024-01-10T09:16:30;2.70;98.10
15997;DHT22;8103;51.340;12.326;2024-01-10T09:18:57;3.40;94.60
15997;DHT22;8103;51.340;12.326;2024-01-10T09:21:27;3.90;93.00
15997;DHT22;8103;51.340;12.326;2024-01-10T09:23:53;4.50;91.70
15997;DHT22;8103;51.340;12.326;2024-01-10T09:26:23;4.80;90.70
15997;DHT22;8103;51.340;12.326;2024-01-10T09:28:49;5.10;89.40
15997;DHT22;8103;51.340;12.326;2024-01-10T09:31:16;5.50;87.50
15997;DHT22;8103;51.340;12.326;2024-01-10T09:33:43;6.00;61.40
15997;DHT22;8103;51.340;12.326;2024-01-10T09:36:10;6.50;57.50
15997;DHT22;8103;51.340;12.326;2024-01-10T09:38:36;6.80;56.00
15997;DHT22;8103;51.340;12.326;2024-01-10T09:41:06;7.20;54.40
15997;DHT22;8103;51.340;12.326;2024-01-10T09:43:33;7.60;53.60
15997;DHT22;8103;51.340;12.326;2024-01-10T09:46:01;8.00;53.00
15997;DHT22;8103;51.340;12.326;2024-01-10T09:50:57;8.50;50.50
15997;DHT22;8103;51.340;12.326;2024-01-10T09:53:25;9.10;49.90
15997;DHT22;8103;51.340;12.326;2024-01-10T09:55:57;9.60;47.80
15997;DHT22;8103;51.340;12.326;2024-01-10T09:58:26;9.80;46.10
15997;DHT22;8103;51.340;12.326;2024-01-10T10:00:53;9.90;45.40
15997;DHT22;8103;51.340;12.326;2024-01-10T10:03:20;10.20;44.70
15997;DHT22;8103;51.340;12.326;2024-01-10T10:05:47;10.40;43.90
15997;DHT22;8103;51.340;12.326;2024-01-10T10:08:14;10.90;44.00
15997;DHT22;8103;51.340;12.326;2024-01-10T10:10:42;10.90;42.10
15997;DHT22;8103;51.340;12.326;2024-01-10T10:13:26;9.60;41.30
15997;DHT22;8103;51.340;12.326;2024-01-10T10:15:59;7.40;42.80
15997;DHT22;8103;51.340;12.326;2024-01-10T10:18:28;5.40;45.30
15997;DHT22;8103;51.340;12.326;2024-01-10T10:21:12;3.60;48.10
15997;DHT22;8103;51.340;12.326;2024-01-10T10:23:40;2.10;51.20
15997;DHT22;8103;51.340;12.326;2024-01-10T10:26:17;1.00;53.80
15997;DHT22;8103;51.340;12.326;2024-01-10T10:28:49;0.10;57.00
15997;DHT22;8103;51.340;12.326;2024-01-10T10:31:17;-0.60;60.40
15997;DHT22;8103;51.340;12.326;2024-01-10T10:33:45;-1.20;82.00
15997;DHT22;8103;51.340;12.326;2024-01-10T10:36:14;-1.70;86.40
15997;DHT22;8103;51.340;12.326;2024-01-10T10:38:41;-2.00;90.50
15997;DHT22;8103;51.340;12.326;2024-01-10T10:41:08;-2.40;77.40
15997;DHT22;8103;51.340;12.326;2024-01-10T10:43:38;-2.60;70.30
15997;DHT22;8103;51.340;12.326;2024-01-10T10:46:06;-2.70;72.10
15997;DHT22;8103;51.340;12.326;2024-01-10T10:48:34;-2.90;77.60
15997;DHT22;8103;51.340;12.326;2024-01-10T10:51:11;-2.90;95.60
15997;DHT22;8103;51.340;12.326;2024-01-10T10:53:39;-3.20;76.50
15997;DHT22;8103;51.340;12.326;2024-01-10T10:56:08;-3.20;76.40
15997;DHT22;8103;51.340;12.326;2024-01-10T10:58:39;-3.30;77.00
15997;DHT22;8103;51.340;12.326;2024-01-10T11:01:07;-3.40;82.00
15997;DHT22;8103;51.340;12.326;2024-01-10T11:03:36;-3.20;85.30
15997;DHT22;8103;51.340;12.326;2024-01-10T11:06:04;-3.30;88.50
15997;DHT22;8103;51.340;12.326;2024-01-10T11:08:40;-3.20;91.80
15997;DHT22;8103;51.340;12.326;2024-01-10T11:19:44;-3.30;96.10
15997;DHT22;8103;51.340;12.326;2024-01-10T11:22:32;-3.20;96.00
15997;DHT22;8103;51.340;12.326;2024-01-10T11:25:05;-3.20;98.20
15997;DHT22;8103;51.340;12.326;2024-01-10T11:27:32;-3.20;98.30
15997;DHT22;8103;51.340;12.326;2024-01-10T11:30:00;-3.20;98.50
15997;DHT22;8103;51.340;12.326;2024-01-10T11:32:27;-3.20;98.60
15997;DHT22;8103;51.340;12.326;2024-01-10T11:37:20;-3.10;98.90
15997;DHT22;8103;51.340;12.326;2024-01-10T11:39:47;-3.10;98.60
15997;DHT22;8103;51.340;12.326;2024-01-10T11:42:43;-3.10;98.60
15997;DHT22;8103;51.340;12.326;2024-01-10T11:48:00;-3.10;98.90
15997;DHT22;8103;51.340;12.326;2024-01-10T11:50:28;-3.00;99.20
15997;DHT22;8103;51.340;12.326;2024-01-10T11:52:57;-3.00;99.40
15997;DHT22;8103;51.340;12.326;2024-01-10T11:55:46;-3.00;99.00
15997;DHT22;8103;51.340;12.326;2024-01-10T11:58:13;-2.90;99.40
15997;DHT22;8103;51.340;12.326;2024-01-10T12:00:40;-2.90;99.30
15997;DHT22;8103;51.340;12.326;2024-01-10T12:03:07;-2.90;99.10
15997;DHT22;8103;51.340;12.326;2024-01-10T12:05:35;-2.80;99.50
15997;DHT22;8103;51.340;12.326;2024-01-10T12:08:06;-2.80;99.50
15997;DHT22;8103;51.340;12.326;2024-01-10T12:10:34;-2.70;99.70
15997;DHT22;8103;51.340;12.326;2024-01-10T12:13:05;-2.70;99.60
15997;DHT22;8103;51.340;12.326;2024-01-10T12:15:32;-2.70;99.90
15997;DHT22;8103;51.340;12.326;2024-01-10T12:18:00;-2.70;99.60
15997;DHT22;8103;51.340;12.326;2024-01-10T12:20:27;-2.70;99.90
15997;DHT22;8103;51.340;12.326;2024-01-10T12:22:55;-2.60;99.90
15997;DHT22;8103;51.340;12.326;2024-01-10T12:25:22;-2.60;99.90
15997;DHT22;8103;51.340;12.326;2024-01-10T12:27:48;-2.60;99.90
15997;DHT22;8103;51.340;12.326;2024-01-10T12:30:15;-2.60;99.90
15997;DHT22;8103;51.340;12.326;2024-01-10T12:32:42;-2.60;99.90
15997;DHT22;8103;51.340;12.326;2024-01-10T12:35:09;-2.50;99.90
15997;DHT22;8103;51.340;12.326;2024-01-10T12:37:36;-2.50;99.90
15997;DHT22;8103;51.340;12.326;2024-01-10T12:40:04;-2.60;99.90
15997;DHT22;8103;51.340;12.326;2024-01-10T12:42:33;-2.50;99.90
15997;DHT22;8103;51.340;12.326;2024-01-10T12:45:00;-2.50;99.90
15997;DHT22;8103;51.340;12.326;2024-01-10T12:47:28;-2.50;99.90
15997;DHT22;8103;51.340;12.326;2024-01-10T12:49:54;-2.50;99.90
15997;DHT22;8103;51.340;12.326;2024-01-10T12:52:22;-2.40;99.90
15997;DHT22;8103;51.340;12.326;2024-01-10T12:54:52;-2.40;99.90
15997;DHT22;8103;51.340;12.326;2024-01-10T12:57:19;-2.40;99.90
15997;DHT22;8103;51.340;12.326;2024-01-10T13:03:33;-2.30;99.90
15997;DHT22;8103;51.340;12.326;2024-01-10T13:06:00;-2.30;99.90
15997;DHT22;8103;51.340;12.326;2024-01-10T13:08:26;-2.30;99.90
15997;DHT22;8103;51.340;12.326;2024-01-10T13:10:54;-2.30;99.90
15997;DHT22;8103;51.340;12.326;2024-01-10T13:13:21;-2.30;99.90
15997;DHT22;8103;51.340;12.326;2024-01-10T13:15:48;-2.30;99.90
15997;DHT22;8103;51.340;12.326;2024-01-10T13:18:16;-2.20;99.90
15997;DHT22;8103;51.340;12.326;2024-01-10T13:20:44;-2.20;99.90
15997;DHT22;8103;51.340;12.326;2024-01-10T13:23:10;-2.20;99.90
15997;DHT22;8103;51.340;12.326;2024-01-10T13:25:37;-2.20;99.90
15997;DHT22;8103;51.340;12.326;2024-01-10T13:28:04;-2.20;99.90
15997;DHT22;8103;51.340;12.326;2024-01-10T13:30:31;-2.20;99.90
15997;DHT22;8103;51.340;12.326;2024-01-10T13:32:58;-1.60;99.90
15997;DHT22;8103;51.340;12.326;2024-01-10T13:35:25;0.40;99.90
15997;DHT22;8103;51.340;12.326;2024-01-10T13:37:51;3.10;92.30
15997;DHT22;8103;51.340;12.326;2024-01-10T13:40:20;5.50;81.10
15997;DHT22;8103;51.340;12.326;2024-01-10T13:42:50;7.70;70.80
15997;DHT22;8103;51.340;12.326;2024-01-10T13:45:17;9.20;61.20
15997;DHT22;8103;51.340;12.326;2024-01-10T13:47:44;10.40;55.20
15997;DHT22;8103;51.340;12.326;2024-01-10T13:50:11;11.10;51.40
15997;DHT22;8103;51.340;12.326;2024-01-10T13:52:38;11.30;47.90
15997;DHT22;8103;51.340;12.326;2024-01-10T13:55:05;10.20;46.30
15997;DHT22;8103;51.340;12.326;2024-01-10T13:57:32;9.10;48.60
15997;DHT22;8103;51.340;12.326;2024-01-10T14:00:00;9.20;50.50
15997;DHT22;8103;51.340;12.326;2024-01-10T14:02:28;9.70;50.40
15997;DHT22;8103;51.340;12.326;2024-01-10T14:04:55;10.30;49.30
15997;DHT22;8103;51.340;12.326;2024-01-10T14:07:24;10.90;48.40
15997;DHT22;8103;51.340;12.326;2024-01-10T14:09:51;11.30;46.70
15997;DHT22;8103;51.340;12.326;2024-01-10T14:12:20;11.50;46.10
15997;DHT22;8103;51.340;12.326;2024-01-10T14:14:49;11.70;44.90
15997;DHT22;8103;51.340;12.326;2024-01-10T14:17:15;11.70;44.20
15997;DHT22;8103;51.340;12.326;2024-01-10T14:19:42;11.10;43.90
15997;DHT22;8103;51.340;12.326;2024-01-10T14:22:10;9.50;44.30
15997;DHT22;8103;51.340;12.326;2024-01-10T14:24:42;7.70;46.20
15997;DHT22;8103;51.340;12.326;2024-01-10T14:27:10;6.00;48.60
15997;DHT22;8103;51.340;12.326;2024-01-10T14:29:37;4.60;51.10
15997;DHT22;8103;51.340;12.326;2024-01-10T14:32:04;3.50;53.40
15997;DHT22;8103;51.340;12.326;2024-01-10T14:34:41;2.60;55.70
15997;DHT22;8103;51.340;12.326;2024-01-10T14:37:08;1.90;57.60
15997;DHT22;8103;51.340;12.326;2024-01-10T14:39:35;1.30;59.70
15997;DHT22;8103;51.340;12.326;2024-01-10T14:42:06;0.80;61.60
15997;DHT22;8103;51.340;12.326;2024-01-10T14:44:33;0.40;63.30
15997;DHT22;8103;51.340;12.326;2024-01-10T14:47:00;0.10;64.50
15997;DHT22;8103;51.340;12.326;2024-01-10T14:49:32;-0.20;66.00
15997;DHT22;8103;51.340;12.326;2024-01-10T14:51:59;-0.40;67.60
15997;DHT22;8103;51.340;12.326;2024-01-10T14:54:25;-0.60;68.50
15997;DHT22;8103;51.340;12.326;2024-01-10T14:56:52;-0.80;70.00
15997;DHT22;8103;51.340;12.326;2024-01-10T14:59:19;-1.00;71.40
15997;DHT22;8103;51.340;12.326;2024-01-10T15:01:54;-1.10;72.60
15997;DHT22;8103;51.340;12.326;2024-01-10T15:04:22;-1.30;86.10
15997;DHT22;8103;51.340;12.326;2024-01-10T15:06:48;-1.40;89.00
15997;DHT22;8103;51.340;12.326;2024-01-10T15:09:15;-1.50;89.80
15997;DHT22;8103;51.340;12.326;2024-01-10T15:11:42;-1.60;84.60
15997;DHT22;8103;51.340;12.326;2024-01-10T15:14:08;-1.70;84.70
15997;DHT22;8103;51.340;12.326;2024-01-10T15:16:36;-1.90;85.30
15997;DHT22;8103;51.340;12.326;2024-01-10T15:19:02;-1.90;83.80
15997;DHT22;8103;51.340;12.326;2024-01-10T15:21:30;-2.10;82.70
15997;DHT22;8103;51.340;12.326;2024-01-10T15:23:57;-2.20;83.10
15997;DHT22;8103;51.340;12.326;2024-01-10T15:26:24;-2.20;84.20
15997;DHT22;8103;51.340;12.326;2024-01-10T15:28:51;-2.40;85.40
15997;DHT22;8103;51.340;12.326;2024-01-10T15:31:20;-2.40;83.70
15997;DHT22;8103;51.340;12.326;2024-01-10T15:33:48;-2.50;84.40
15997;DHT22;8103;51.340;12.326;2024-01-10T15:36:15;-2.50;84.60
15997;DHT22;8103;51.340;12.326;2024-01-10T15:38:42;-2.60;85.00
15997;DHT22;8103;51.340;12.326;2024-01-10T15:41:09;-2.60;85.40
15997;DHT22;8103;51.340;12.326;2024-01-10T15:43:37;-2.70;85.60
15997;DHT22;8103;51.340;12.326;2024-01-10T15:46:04;-2.80;85.70
15997;DHT22;8103;51.340;12.326;2024-01-10T15:48:31;-2.80;90.80
15997;DHT22;8103;51.340;12.326;2024-01-10T15:50:58;-2.80;87.20
15997;DHT22;8103;51.340;12.326;2024-01-10T15:53:25;-2.90;87.30
15997;DHT22;8103;51.340;12.326;2024-01-10T15:55:51;-3.30;90.20
15997;DHT22;8103;51.340;12.326;2024-01-10T15:58:18;-3.00;88.00